Nearby METAR Reports

 

KHCR - Heber/Russ Mcdon, Utah, USA
Distance from station: SSW 18mi, 29km
Updated: Sun, 04-Dec-2022 10:35pm MST
Light rain, Overcast
Light rain, Overcast
 Wind from SSW
Wind: SSW 15 mph , 24 km/h, Gust: 24 mph , 39 km/h
Temperature: 43°F , 6°C
Wind Chill: 36°F , 2°C
Dew Point: 32°F , 0°C
Humidity: 66%
Barometer: 29.89 inHg , 1012.2 hPa
Summary: Light rain
Clouds: Overcast
Visibility: 10 miles , 16 km
Cloud details: Partly cloudy 4600 ft
Mostly cloudy 6500 ft
Overcast 9500 ft
2022/12/05 05:35 KHCR 050535Z AUTO 20013G21KT 10SM -RA SCT046 BKN065 OVC095 06/00 A2989 RMK AO2
KSLC - Salt Lake City, Utah, USA
Distance from station: W 35mi, 57km
Updated: Sun, 04-Dec-2022 10:42pm MST
Light snow, Mostly cloudy
Light snow, Mostly cloudy
 Wind from N
Wind: N 17 mph , 28 km/h
Temperature: 34°F , 1°C
Wind Chill: 23°F , -5°C
Dew Point: 28°F , -2°C
Humidity: 81%
Barometer: 29.99 inHg , 1015.6 hPa
Summary: Light Snow
Clouds: Mostly cloudy
Visibility: 2 1/2 miles , 4 km
Cloud details: Mostly cloudy 2700 ft
Mostly cloudy 4700 ft
Mostly cloudy 6000 ft
2022/12/05 05:42 KSLC 050542Z 36015KT 2 1/2SM -SN BKN027 BKN047 BKN060 01/M02 A2999 RMK AO2 RAE09SNB32 P0000 T00111017 $
 
KU42 - Salt Lake Muni, Utah, USA
Distance from station: WSW 37mi, 59km
Updated: Sun, 04-Dec-2022 10:35pm MST
Overcast
Overcast
 Wind from NW
Wind: NW 26 mph , 43 km/h, Gust: 35 mph , 56 km/h
Temperature: 32°F , 0°C
Wind Chill: 18°F , -8°C
Dew Point: 32°F , 0°C
Humidity: 100%
Barometer: 29.98 inHg , 1015.2 hPa
Clouds: Overcast
Visibility: 10 miles , 16 km
Cloud details: Partly cloudy 5500 ft
Mostly cloudy 6500 ft
Overcast 9000 ft
2022/12/05 05:35 KU42 050535Z AUTO 32023G30KT 10SM SCT055 BKN065 OVC090 00/00 A2998 RMK AO1 T00001004
KEVW - Evanston, Wyoming, USA
Distance from station: NNE 40mi, 64km
Updated: Sun, 04-Dec-2022 9:53pm MST
Few Clouds
Few Clouds
 Wind from SW
Wind: SW 8 mph , 13 km/h
Temperature: 34°F , 1°C
Wind Chill: 27°F , -3°C
Dew Point: 27°F , -3°C
Humidity: 75%
Barometer: 29.89 inHg , 1012.2 hPa
Clouds: Few Clouds
Visibility: 10 miles , 16 km
Cloud details: Few Clouds 4500 ft
2022/12/05 04:53 KEVW 050453Z AUTO 22007KT 10SM FEW045 01/M03 A2989 RMK AO2 SLP136 T00111028 $
 
KPVU - Provo Muni, Utah, USA
Distance from station: SSW 41mi, 67km
Updated: Sun, 04-Dec-2022 9:56pm MST
Overcast
Overcast
 Wind from varies
Wind: varies 3 mph , 6 km/h
Temperature: 43°F , 6°C
Dew Point: 34°F , 1°C
Humidity: 71%
Barometer: 29.94 inHg , 1013.9 hPa
Clouds: Overcast
Visibility: 10 miles , 16 km
Cloud details: Partly cloudy 4800 ft
Overcast 7500 ft
2022/12/05 04:56 KPVU 050456Z AUTO VRB03KT 10SM SCT048 OVC075 06/01 A2994 RMK AO2 SLP143 T00610011
KHIF - Hill Afb/Ogden, Utah, USA
Distance from station: NW 45mi, 72km
Updated: Sun, 04-Dec-2022 10:41pm MST
Light snow, Mist, Overcast
Light snow, Mist, Overcast
 Wind from calm
Wind: Calm
Temperature: 32°F , 0°C
Dew Point: 32°F , 0°C
Humidity: 100%
Barometer: 29.97 inHg , 1014.9 hPa
Summary: Light snow, Mist
Clouds: Overcast
Visibility: 4 miles , 6 km
Cloud details: Mostly cloudy 600 ft
Overcast 1100 ft
2022/12/05 05:41 KHIF 050541Z AUTO 00000KT 4SM -SN BR BKN006 OVC011 M00/M00 A2997 RMK AO2 UPB05E31SNB31 CIG 006V011 BKN V SCT SLP158
 
KOGD - Ogden, Utah, USA
Distance from station: NW 50mi, 81km
Updated: Sun, 04-Dec-2022 10:44pm MST
Snow, Fog, Overcast
Snow, Fog, Overcast
 Wind from calm
Wind: Calm
Temperature: 34°F , 1°C
Dew Point: 30°F , -1°C
Humidity: 87%
Barometer: 29.99 inHg , 1015.6 hPa
Summary: Snow, Fog
Clouds: Overcast
Visibility: 1/2 mile , 0.8 km
Cloud details: Overcast 500 ft
2022/12/05 05:44 KOGD 050544Z AUTO 00000KT 1/2SM SN FG OVC005 01/M01 A2999 RMK AO2 P0005 T00111006